sensor_id;sensor_type;location;lat;lon;timestamp;temperature;humidity
16140;DHT22;8175;49.326;12.690;2022-07-18T00:00:06;12.20;75.60
16140;DHT22;8175;49.326;12.690;2022-07-18T00:02:32;12.10;72.40
16140;DHT22;8175;49.326;12.690;2022-07-18T00:04:58;12.00;72.80
16140;DHT22;8175;49.326;12.690;2022-07-18T00:07:23;12.00;74.00
16140;DHT22;8175;49.326;12.690;2022-07-18T00:09:49;12.00;74.00
16140;DHT22;8175;49.326;12.690;2022-07-18T00:12:15;12.00;69.60
16140;DHT22;8175;49.326;12.690;2022-07-18T00:14:41;12.10;68.10
16140;DHT22;8175;49.326;12.690;2022-07-18T00:17:07;12.20;68.30
16140;DHT22;8175;49.326;12.690;2022-07-18T00:19:34;12.20;69.00
16140;DHT22;8175;49.326;12.690;2022-07-18T00:22:00;12.30;69.30
16140;DHT22;8175;49.326;12.690;2022-07-18T00:24:26;12.40;69.50
16140;DHT22;8175;49.326;12.690;2022-07-18T00:26:52;12.20;70.80
16140;DHT22;8175;49.326;12.690;2022-07-18T00:29:18;12.20;69.90
16140;DHT22;8175;49.326;12.690;2022-07-18T00:31:43;12.20;70.80
16140;DHT22;8175;49.326;12.690;2022-07-18T00:34:09;12.10;70.60
16140;DHT22;8175;49.326;12.690;2022-07-18T00:36:35;12.00;69.70
16140;DHT22;8175;49.326;12.690;2022-07-18T00:39:01;12.00;70.20
16140;DHT22;8175;49.326;12.690;2022-07-18T00:41:26;12.00;70.50
16140;DHT22;8175;49.326;12.690;2022-07-18T00:43:52;12.00;69.80
16140;DHT22;8175;49.326;12.690;2022-07-18T00:46:26;12.20;70.80
16140;DHT22;8175;49.326;12.690;2022-07-18T00:48:52;12.20;73.30
16140;DHT22;8175;49.326;12.690;2022-07-18T00:51:19;12.10;74.70
16140;DHT22;8175;49.326;12.690;2022-07-18T00:53:45;12.00;73.90
16140;DHT22;8175;49.326;12.690;2022-07-18T00:56:12;12.00;70.60
16140;DHT22;8175;49.326;12.690;2022-07-18T00:58:38;12.00;69.60
16140;DHT22;8175;49.326;12.690;2022-07-18T01:01:05;12.00;70.20
16140;DHT22;8175;49.326;12.690;2022-07-18T01:03:49;12.10;72.10
16140;DHT22;8175;49.326;12.690;2022-07-18T01:06:15;12.10;72.10
16140;DHT22;8175;49.326;12.690;2022-07-18T01:08:42;12.00;74.70
16140;DHT22;8175;49.326;12.690;2022-07-18T01:11:09;11.80;72.70
16140;DHT22;8175;49.326;12.690;2022-07-18T01:13:35;11.70;73.10
16140;DHT22;8175;49.326;12.690;2022-07-18T01:16:01;11.60;75.10
16140;DHT22;8175;49.326;12.690;2022-07-18T01:18:27;11.50;76.90
16140;DHT22;8175;49.326;12.690;2022-07-18T01:20:53;11.40;78.80
16140;DHT22;8175;49.326;12.690;2022-07-18T01:23:19;11.30;77.30
16140;DHT22;8175;49.326;12.690;2022-07-18T01:25:44;11.30;74.90
16140;DHT22;8175;49.326;12.690;2022-07-18T01:28:10;11.30;74.10
16140;DHT22;8175;49.326;12.690;2022-07-18T01:30:36;11.40;73.90
16140;DHT22;8175;49.326;12.690;2022-07-18T01:33:02;11.50;74.40
16140;DHT22;8175;49.326;12.690;2022-07-18T01:35:29;11.40;78.20
16140;DHT22;8175;49.326;12.690;2022-07-18T01:37:56;11.30;80.00
16140;DHT22;8175;49.326;12.690;2022-07-18T01:40:23;11.30;78.00
16140;DHT22;8175;49.326;12.690;2022-07-18T01:42:49;11.20;77.50
16140;DHT22;8175;49.326;12.690;2022-07-18T01:45:14;11.20;81.40
16140;DHT22;8175;49.326;12.690;2022-07-18T01:47:41;11.10;79.40
16140;DHT22;8175;49.326;12.690;2022-07-18T01:50:07;11.10;77.10
16140;DHT22;8175;49.326;12.690;2022-07-18T01:52:33;11.20;76.60
16140;DHT22;8175;49.326;12.690;2022-07-18T01:54:58;11.20;78.90
16140;DHT22;8175;49.326;12.690;2022-07-18T01:57:24;11.30;78.10
16140;DHT22;8175;49.326;12.690;2022-07-18T01:59:50;11.40;83.10
16140;DHT22;8175;49.326;12.690;2022-07-18T02:02:16;11.40;79.10
16140;DHT22;8175;49.326;12.690;2022-07-18T02:04:41;11.50;76.30
16140;DHT22;8175;49.326;12.690;2022-07-18T02:07:33;11.60;76.20
16140;DHT22;8175;49.326;12.690;2022-07-18T02:10:00;11.60;76.20
16140;DHT22;8175;49.326;12.690;2022-07-18T02:12:26;11.60;76.20
16140;DHT22;8175;49.326;12.690;2022-07-18T02:14:52;11.60;76.60
16140;DHT22;8175;49.326;12.690;2022-07-18T02:17:18;11.60;77.00
16140;DHT22;8175;49.326;12.690;2022-07-18T02:19:44;11.60;77.20
16140;DHT22;8175;49.326;12.690;2022-07-18T02:22:10;11.60;82.00
16140;DHT22;8175;49.326;12.690;2022-07-18T02:24:36;11.40;83.30
16140;DHT22;8175;49.326;12.690;2022-07-18T02:27:01;11.30;81.80
16140;DHT22;8175;49.326;12.690;2022-07-18T02:29:28;11.10;82.00
16140;DHT22;8175;49.326;12.690;2022-07-18T02:31:54;11.10;83.50
16140;DHT22;8175;49.326;12.690;2022-07-18T02:34:19;11.00;86.00
16140;DHT22;8175;49.326;12.690;2022-07-18T02:36:45;11.00;89.00
16140;DHT22;8175;49.326;12.690;2022-07-18T02:39:11;10.90;85.50
16140;DHT22;8175;49.326;12.690;2022-07-18T02:41:37;11.10;84.10
16140;DHT22;8175;49.326;12.690;2022-07-18T02:44:03;11.10;85.60
16140;DHT22;8175;49.326;12.690;2022-07-18T02:46:29;11.00;92.90
16140;DHT22;8175;49.326;12.690;2022-07-18T02:48:55;10.90;92.20
16140;DHT22;8175;49.326;12.690;2022-07-18T02:51:20;11.00;92.10
16140;DHT22;8175;49.326;12.690;2022-07-18T02:53:46;10.90;91.60
16140;DHT22;8175;49.326;12.690;2022-07-18T02:56:12;10.90;92.50
16140;DHT22;8175;49.326;12.690;2022-07-18T02:58:38;10.80;92.20
16140;DHT22;8175;49.326;12.690;2022-07-18T03:01:03;10.70;92.30
16140;DHT22;8175;49.326;12.690;2022-07-18T03:03:29;10.80;93.10
16140;DHT22;8175;49.326;12.690;2022-07-18T03:05:54;10.70;93.80
16140;DHT22;8175;49.326;12.690;2022-07-18T03:08:20;10.70;93.10
16140;DHT22;8175;49.326;12.690;2022-07-18T03:10:46;10.60;96.50
16140;DHT22;8175;49.326;12.690;2022-07-18T03:13:11;10.70;97.20
16140;DHT22;8175;49.326;12.690;2022-07-18T03:15:38;10.60;96.90
16140;DHT22;8175;49.326;12.690;2022-07-18T03:18:04;10.60;95.70
16140;DHT22;8175;49.326;12.690;2022-07-18T03:20:30;10.60;97.20
16140;DHT22;8175;49.326;12.690;2022-07-18T03:22:56;10.60;98.20
16140;DHT22;8175;49.326;12.690;2022-07-18T03:25:22;10.50;97.00
16140;DHT22;8175;49.326;12.690;2022-07-18T03:27:47;10.50;96.80
16140;DHT22;8175;49.326;12.690;2022-07-18T03:30:14;10.60;96.50
16140;DHT22;8175;49.326;12.690;2022-07-18T03:32:40;10.60;99.10
16140;DHT22;8175;49.326;12.690;2022-07-18T03:35:06;10.70;99.40
16140;DHT22;8175;49.326;12.690;2022-07-18T03:37:32;10.70;98.30
16140;DHT22;8175;49.326;12.690;2022-07-18T03:39:58;10.70;99.90
16140;DHT22;8175;49.326;12.690;2022-07-18T03:42:23;10.60;99.90
16140;DHT22;8175;49.326;12.690;2022-07-18T03:44:49;10.60;99.90
16140;DHT22;8175;49.326;12.690;2022-07-18T03:47:15;10.50;99.90
16140;DHT22;8175;49.326;12.690;2022-07-18T03:49:40;10.50;99.90
16140;DHT22;8175;49.326;12.690;2022-07-18T03:52:06;10.60;99.90
16140;DHT22;8175;49.326;12.690;2022-07-18T03:54:31;10.60;99.90
16140;DHT22;8175;49.326;12.690;2022-07-18T03:56:57;10.70;99.90
16140;DHT22;8175;49.326;12.690;2022-07-18T03:59:23;10.70;99.90
16140;DHT22;8175;49.326;12.690;2022-07-18T04:01:48;10.70;99.90
16140;DHT22;8175;49.326;12.690;2022-07-18T04:04:14;10.70;99.90
16140;DHT22;8175;49.326;12.690;2022-07-18T04:06:40;10.60;99.90
16140;DHT22;8175;49.326;12.690;2022-07-18T04:09:05;10.60;99.90
16140;DHT22;8175;49.326;12.690;2022-07-18T04:11:31;10.60;99.90
16140;DHT22;8175;49.326;12.690;2022-07-18T04:13:57;10.70;99.90
16140;DHT22;8175;49.326;12.690;2022-07-18T04:16:23;10.80;99.90
16140;DHT22;8175;49.326;12.690;2022-07-18T04:18:49;10.90;99.90
16140;DHT22;8175;49.326;12.690;2022-07-18T04:21:15;10.90;99.90
16140;DHT22;8175;49.326;12.690;2022-07-18T04:23:41;10.90;99.90
16140;DHT22;8175;49.326;12.690;2022-07-18T04:26:07;10.90;99.90
16140;DHT22;8175;49.326;12.690;2022-07-18T04:28:33;10.80;99.90
16140;DHT22;8175;49.326;12.690;2022-07-18T04:30:58;10.90;99.90
16140;DHT22;8175;49.326;12.690;2022-07-18T04:33:24;10.90;99.90
16140;DHT22;8175;49.326;12.690;2022-07-18T04:35:50;11.00;99.90
16140;DHT22;8175;49.326;12.690;2022-07-18T04:38:15;11.10;99.90
16140;DHT22;8175;49.326;12.690;2022-07-18T04:40:41;11.10;99.90
16140;DHT22;8175;49.326;12.690;2022-07-18T04:43:07;11.10;99.90
16140;DHT22;8175;49.326;12.690;2022-07-18T04:45:34;11.10;99.90
16140;DHT22;8175;49.326;12.690;2022-07-18T04:48:00;11.10;99.90
16140;DHT22;8175;49.326;12.690;2022-07-18T04:50:26;11.10;99.90
16140;DHT22;8175;49.326;12.690;2022-07-18T04:52:52;11.20;99.90
16140;DHT22;8175;49.326;12.690;2022-07-18T04:55:20;11.20;99.90
16140;DHT22;8175;49.326;12.690;2022-07-18T04:57:47;11.30;99.90
16140;DHT22;8175;49.326;12.690;2022-07-18T05:00:15;11.40;99.90
16140;DHT22;8175;49.326;12.690;2022-07-18T05:02:42;11.50;99.90
16140;DHT22;8175;49.326;12.690;2022-07-18T05:05:09;11.50;99.90
16140;DHT22;8175;49.326;12.690;2022-07-18T05:07:35;11.60;99.90
16140;DHT22;8175;49.326;12.690;2022-07-18T05:10:01;11.70;99.90
16140;DHT22;8175;49.326;12.690;2022-07-18T05:12:29;11.80;99.90
16140;DHT22;8175;49.326;12.690;2022-07-18T05:14:55;11.90;99.90
16140;DHT22;8175;49.326;12.690;2022-07-18T05:17:20;12.00;99.90
16140;DHT22;8175;49.326;12.690;2022-07-18T05:19:46;12.10;99.90
16140;DHT22;8175;49.326;12.690;2022-07-18T05:22:12;12.20;99.90
16140;DHT22;8175;49.326;12.690;2022-07-18T05:24:37;12.40;99.90
16140;DHT22;8175;49.326;12.690;2022-07-18T05:27:03;12.40;99.90
16140;DHT22;8175;49.326;12.690;2022-07-18T05:29:29;12.50;99.90
16140;DHT22;8175;49.326;12.690;2022-07-18T05:31:55;12.70;99.90
16140;DHT22;8175;49.326;12.690;2022-07-18T05:34:21;12.80;99.90
16140;DHT22;8175;49.326;12.690;2022-07-18T05:36:47;12.90;99.90
16140;DHT22;8175;49.326;12.690;2022-07-18T05:39:12;13.10;99.90
16140;DHT22;8175;49.326;12.690;2022-07-18T05:41:38;13.20;99.90
16140;DHT22;8175;49.326;12.690;2022-07-18T05:44:04;13.40;99.90
16140;DHT22;8175;49.326;12.690;2022-07-18T05:46:31;13.50;99.90
16140;DHT22;8175;49.326;12.690;2022-07-18T05:48:56;13.60;99.90
16140;DHT22;8175;49.326;12.690;2022-07-18T05:51:22;13.70;99.90
16140;DHT22;8175;49.326;12.690;2022-07-18T05:53:48;13.80;99.90
16140;DHT22;8175;49.326;12.690;2022-07-18T05:56:14;13.90;99.90
16140;DHT22;8175;49.326;12.690;2022-07-18T05:58:40;14.10;99.90
16140;DHT22;8175;49.326;12.690;2022-07-18T06:01:05;14.20;99.90
16140;DHT22;8175;49.326;12.690;2022-07-18T06:03:31;14.40;99.90
16140;DHT22;8175;49.326;12.690;2022-07-18T06:05:57;14.60;99.90
16140;DHT22;8175;49.326;12.690;2022-07-18T06:08:23;14.80;99.90
16140;DHT22;8175;49.326;12.690;2022-07-18T06:10:48;14.90;99.90
16140;DHT22;8175;49.326;12.690;2022-07-18T06:13:14;15.00;99.90
16140;DHT22;8175;49.326;12.690;2022-07-18T06:15:40;15.10;99.90
16140;DHT22;8175;49.326;12.690;2022-07-18T06:18:05;15.30;99.90
16140;DHT22;8175;49.326;12.690;2022-07-18T06:20:31;15.40;99.90
16140;DHT22;8175;49.326;12.690;2022-07-18T06:22:57;15.50;99.90
16140;DHT22;8175;49.326;12.690;2022-07-18T06:25:22;15.70;99.90
16140;DHT22;8175;49.326;12.690;2022-07-18T06:27:48;15.90;99.90
16140;DHT22;8175;49.326;12.690;2022-07-18T06:30:14;16.10;99.90
16140;DHT22;8175;49.326;12.690;2022-07-18T06:32:40;16.20;99.90
16140;DHT22;8175;49.326;12.690;2022-07-18T06:35:06;16.50;99.90
16140;DHT22;8175;49.326;12.690;2022-07-18T06:37:32;16.70;99.90
16140;DHT22;8175;49.326;12.690;2022-07-18T06:39:58;17.00;99.90
16140;DHT22;8175;49.326;12.690;2022-07-18T06:42:24;17.10;99.90
16140;DHT22;8175;49.326;12.690;2022-07-18T06:44:49;17.30;99.90
16140;DHT22;8175;49.326;12.690;2022-07-18T06:47:15;17.50;99.90
16140;DHT22;8175;49.326;12.690;2022-07-18T06:49:40;17.60;99.90
16140;DHT22;8175;49.326;12.690;2022-07-18T06:52:06;17.90;99.90
16140;DHT22;8175;49.326;12.690;2022-07-18T06:54:32;18.10;99.90
16140;DHT22;8175;49.326;12.690;2022-07-18T06:57:00;18.20;99.90
16140;DHT22;8175;49.326;12.690;2022-07-18T06:59:28;18.20;99.90
16140;DHT22;8175;49.326;12.690;2022-07-18T07:01:54;18.30;99.90
16140;DHT22;8175;49.326;12.690;2022-07-18T07:04:20;18.50;99.90
16140;DHT22;8175;49.326;12.690;2022-07-18T07:06:46;18.80;99.70
16140;DHT22;8175;49.326;12.690;2022-07-18T07:09:11;19.80;95.50
16140;DHT22;8175;49.326;12.690;2022-07-18T07:11:37;21.50;92.00
16140;DHT22;8175;49.326;12.690;2022-07-18T07:14:03;22.30;76.70
16140;DHT22;8175;49.326;12.690;2022-07-18T07:16:28;22.60;72.80
16140;DHT22;8175;49.326;12.690;2022-07-18T07:18:54;22.20;73.80
16140;DHT22;8175;49.326;12.690;2022-07-18T07:21:20;21.60;72.90
16140;DHT22;8175;49.326;12.690;2022-07-18T07:23:45;21.40;69.50
16140;DHT22;8175;49.326;12.690;2022-07-18T07:26:11;21.30;68.30
16140;DHT22;8175;49.326;12.690;2022-07-18T07:28:36;21.30;71.90
16140;DHT22;8175;49.326;12.690;2022-07-18T07:31:02;21.40;71.40
16140;DHT22;8175;49.326;12.690;2022-07-18T07:33:28;21.60;73.40
16140;DHT22;8175;49.326;12.690;2022-07-18T07:35:53;21.90;71.00
16140;DHT22;8175;49.326;12.690;2022-07-18T07:38:19;22.60;67.00
16140;DHT22;8175;49.326;12.690;2022-07-18T07:40:48;22.90;66.00
16140;DHT22;8175;49.326;12.690;2022-07-18T07:43:15;22.90;65.40
16140;DHT22;8175;49.326;12.690;2022-07-18T07:45:45;23.30;66.40
16140;DHT22;8175;49.326;12.690;2022-07-18T07:48:11;24.30;63.10
16140;DHT22;8175;49.326;12.690;2022-07-18T07:50:37;25.20;59.90
16140;DHT22;8175;49.326;12.690;2022-07-18T07:53:03;25.30;59.00
16140;DHT22;8175;49.326;12.690;2022-07-18T07:55:29;26.30;56.00
16140;DHT22;8175;49.326;12.690;2022-07-18T07:57:54;27.60;55.30
16140;DHT22;8175;49.326;12.690;2022-07-18T08:00:21;28.50;52.10
16140;DHT22;8175;49.326;12.690;2022-07-18T08:02:55;28.70;50.90
16140;DHT22;8175;49.326;12.690;2022-07-18T08:05:21;29.10;49.50
16140;DHT22;8175;49.326;12.690;2022-07-18T08:07:47;28.80;49.00
16140;DHT22;8175;49.326;12.690;2022-07-18T08:10:13;28.50;49.20
16140;DHT22;8175;49.326;12.690;2022-07-18T08:12:39;29.50;48.40
16140;DHT22;8175;49.326;12.690;2022-07-18T08:15:05;29.80;46.60
16140;DHT22;8175;49.326;12.690;2022-07-18T08:17:31;29.40;47.60
16140;DHT22;8175;49.326;12.690;2022-07-18T08:19:56;29.40;47.40
16140;DHT22;8175;49.326;12.690;2022-07-18T08:22:22;29.60;47.70
16140;DHT22;8175;49.326;12.690;2022-07-18T08:24:48;30.30;45.80
16140;DHT22;8175;49.326;12.690;2022-07-18T08:27:13;30.80;44.30
16140;DHT22;8175;49.326;12.690;2022-07-18T08:29:39;30.60;45.70
16140;DHT22;8175;49.326;12.690;2022-07-18T08:32:05;30.70;45.00
16140;DHT22;8175;49.326;12.690;2022-07-18T08:34:31;31.00;45.40
16140;DHT22;8175;49.326;12.690;2022-07-18T08:36:57;30.60;42.90
16140;DHT22;8175;49.326;12.690;2022-07-18T08:39:22;31.00;44.90
16140;DHT22;8175;49.326;12.690;2022-07-18T08:41:50;31.30;43.70
16140;DHT22;8175;49.326;12.690;2022-07-18T08:44:16;31.10;42.90
16140;DHT22;8175;49.326;12.690;2022-07-18T08:46:49;31.50;41.40
16140;DHT22;8175;49.326;12.690;2022-07-18T08:49:16;31.60;43.20
16140;DHT22;8175;49.326;12.690;2022-07-18T08:51:42;31.90;41.20
16140;DHT22;8175;49.326;12.690;2022-07-18T08:54:09;31.80;41.10
16140;DHT22;8175;49.326;12.690;2022-07-18T08:56:34;32.20;41.30
16140;DHT22;8175;49.326;12.690;2022-07-18T08:59:01;32.00;40.60
16140;DHT22;8175;49.326;12.690;2022-07-18T09:01:29;31.70;41.30
16140;DHT22;8175;49.326;12.690;2022-07-18T09:03:54;31.90;43.30
16140;DHT22;8175;49.326;12.690;2022-07-18T09:06:50;31.90;42.30
16140;DHT22;8175;49.326;12.690;2022-07-18T09:09:17;32.90;42.10
16140;DHT22;8175;49.326;12.690;2022-07-18T09:12:09;32.60;37.40
16140;DHT22;8175;49.326;12.690;2022-07-18T09:14:44;32.40;39.60
16140;DHT22;8175;49.326;12.690;2022-07-18T09:17:24;32.70;39.10
16140;DHT22;8175;49.326;12.690;2022-07-18T09:20:10;32.10;39.60
16140;DHT22;8175;49.326;12.690;2022-07-18T09:22:40;33.30;41.00
16140;DHT22;8175;49.326;12.690;2022-07-18T09:25:17;33.90;38.40
16140;DHT22;8175;49.326;12.690;2022-07-18T09:27:50;34.00;41.40
16140;DHT22;8175;49.326;12.690;2022-07-18T09:30:23;34.70;37.80
16140;DHT22;8175;49.326;12.690;2022-07-18T09:32:51;34.60;38.40
16140;DHT22;8175;49.326;12.690;2022-07-18T09:35:27;33.80;37.20
16140;DHT22;8175;49.326;12.690;2022-07-18T09:40:26;33.00;37.70
16140;DHT22;8175;49.326;12.690;2022-07-18T09:42:57;33.20;40.70
16140;DHT22;8175;49.326;12.690;2022-07-18T09:48:02;31.90;40.90
16140;DHT22;8175;49.326;12.690;2022-07-18T09:50:38;32.10;40.00
16140;DHT22;8175;49.326;12.690;2022-07-18T09:55:47;33.40;39.00
16140;DHT22;8175;49.326;12.690;2022-07-18T09:58:22;34.00;38.20
16140;DHT22;8175;49.326;12.690;2022-07-18T10:00:48;34.30;36.10
16140;DHT22;8175;49.326;12.690;2022-07-18T10:03:14;34.50;37.20
16140;DHT22;8175;49.326;12.690;2022-07-18T10:05:41;34.70;36.80
16140;DHT22;8175;49.326;12.690;2022-07-18T10:08:10;33.60;35.50
16140;DHT22;8175;49.326;12.690;2022-07-18T10:10:36;32.70;37.20
16140;DHT22;8175;49.326;12.690;2022-07-18T10:13:04;33.50;36.60
16140;DHT22;8175;49.326;12.690;2022-07-18T10:15:33;33.90;37.70
16140;DHT22;8175;49.326;12.690;2022-07-18T10:17:59;34.60;36.20
16140;DHT22;8175;49.326;12.690;2022-07-18T10:20:38;34.80;36.10
16140;DHT22;8175;49.326;12.690;2022-07-18T10:23:08;34.40;34.40
16140;DHT22;8175;49.326;12.690;2022-07-18T10:25:35;34.30;34.20
16140;DHT22;8175;49.326;12.690;2022-07-18T10:28:10;33.90;34.70
16140;DHT22;8175;49.326;12.690;2022-07-18T10:30:46;34.60;35.80
16140;DHT22;8175;49.326;12.690;2022-07-18T10:33:41;34.40;34.00
16140;DHT22;8175;49.326;12.690;2022-07-18T10:36:17;34.50;34.30
16140;DHT22;8175;49.326;12.690;2022-07-18T11:00:35;35.00;31.70
16140;DHT22;8175;49.326;12.690;2022-07-18T11:08:19;34.90;34.20
16140;DHT22;8175;49.326;12.690;2022-07-18T11:18:22;35.20;34.00
16140;DHT22;8175;49.326;12.690;2022-07-18T11:20:49;34.40;35.00
16140;DHT22;8175;49.326;12.690;2022-07-18T11:23:18;34.40;36.40
16140;DHT22;8175;49.326;12.690;2022-07-18T11:25:44;34.70;34.30
16140;DHT22;8175;49.326;12.690;2022-07-18T11:28:11;35.10;32.90
16140;DHT22;8175;49.326;12.690;2022-07-18T11:30:37;34.90;34.50
16140;DHT22;8175;49.326;12.690;2022-07-18T11:33:05;35.40;32.90
16140;DHT22;8175;49.326;12.690;2022-07-18T11:35:31;35.10;35.30
16140;DHT22;8175;49.326;12.690;2022-07-18T11:37:56;34.40;32.30
16140;DHT22;8175;49.326;12.690;2022-07-18T11:40:22;35.00;35.40
16140;DHT22;8175;49.326;12.690;2022-07-18T11:42:48;34.50;34.70
16140;DHT22;8175;49.326;12.690;2022-07-18T11:45:16;34.30;35.80
16140;DHT22;8175;49.326;12.690;2022-07-18T11:47:46;34.60;35.30
16140;DHT22;8175;49.326;12.690;2022-07-18T11:50:13;34.70;34.90
16140;DHT22;8175;49.326;12.690;2022-07-18T11:52:40;35.30;34.90
16140;DHT22;8175;49.326;12.690;2022-07-18T11:55:08;35.10;34.00
16140;DHT22;8175;49.326;12.690;2022-07-18T11:57:34;35.20;35.20
16140;DHT22;8175;49.326;12.690;2022-07-18T12:00:00;35.10;33.60
16140;DHT22;8175;49.326;12.690;2022-07-18T12:02:26;34.70;36.50
16140;DHT22;8175;49.326;12.690;2022-07-18T12:04:52;34.10;34.30
16140;DHT22;8175;49.326;12.690;2022-07-18T12:07:23;33.90;36.00
16140;DHT22;8175;49.326;12.690;2022-07-18T12:09:50;33.70;36.90
16140;DHT22;8175;49.326;12.690;2022-07-18T12:12:19;33.90;38.50
16140;DHT22;8175;49.326;12.690;2022-07-18T12:15:01;34.70;35.80
16140;DHT22;8175;49.326;12.690;2022-07-18T12:17:29;34.20;36.00
16140;DHT22;8175;49.326;12.690;2022-07-18T12:20:13;33.80;36.40
16140;DHT22;8175;49.326;12.690;2022-07-18T12:23:04;33.80;37.30
16140;DHT22;8175;49.326;12.690;2022-07-18T12:25:54;33.70;36.30
16140;DHT22;8175;49.326;12.690;2022-07-18T12:28:20;33.30;35.10
16140;DHT22;8175;49.326;12.690;2022-07-18T12:30:47;33.50;37.30
16140;DHT22;8175;49.326;12.690;2022-07-18T12:33:13;34.50;35.40
16140;DHT22;8175;49.326;12.690;2022-07-18T12:35:39;34.90;37.00
16140;DHT22;8175;49.326;12.690;2022-07-18T12:38:13;35.10;38.20
16140;DHT22;8175;49.326;12.690;2022-07-18T12:40:55;35.00;34.50
16140;DHT22;8175;49.326;12.690;2022-07-18T12:43:28;34.70;34.80
16140;DHT22;8175;49.326;12.690;2022-07-18T12:45:56;35.00;39.10
16140;DHT22;8175;49.326;12.690;2022-07-18T12:48:22;34.80;36.10
16140;DHT22;8175;49.326;12.690;2022-07-18T12:50:58;34.10;35.10
16140;DHT22;8175;49.326;12.690;2022-07-18T12:53:24;33.90;36.50
16140;DHT22;8175;49.326;12.690;2022-07-18T12:55:50;33.90;35.50
16140;DHT22;8175;49.326;12.690;2022-07-18T12:58:16;33.70;37.70
16140;DHT22;8175;49.326;12.690;2022-07-18T13:00:42;33.70;37.70
16140;DHT22;8175;49.326;12.690;2022-07-18T13:03:09;34.40;36.20
16140;DHT22;8175;49.326;12.690;2022-07-18T13:05:35;35.50;37.60
16140;DHT22;8175;49.326;12.690;2022-07-18T13:08:01;35.10;36.40
16140;DHT22;8175;49.326;12.690;2022-07-18T13:10:26;35.20;34.50
16140;DHT22;8175;49.326;12.690;2022-07-18T13:12:52;35.40;36.40
16140;DHT22;8175;49.326;12.690;2022-07-18T13:15:18;34.60;36.50
16140;DHT22;8175;49.326;12.690;2022-07-18T13:17:46;34.00;34.80
16140;DHT22;8175;49.326;12.690;2022-07-18T13:20:14;34.00;36.40
16140;DHT22;8175;49.326;12.690;2022-07-18T13:22:40;33.80;36.50
16140;DHT22;8175;49.326;12.690;2022-07-18T13:25:07;33.60;38.40
16140;DHT22;8175;49.326;12.690;2022-07-18T13:27:34;34.40;35.80
16140;DHT22;8175;49.326;12.690;2022-07-18T13:30:00;34.60;35.10
16140;DHT22;8175;49.326;12.690;2022-07-18T13:32:29;34.70;37.40
16140;DHT22;8175;49.326;12.690;2022-07-18T13:34:55;34.80;35.50
16140;DHT22;8175;49.326;12.690;2022-07-18T13:37:21;34.70;35.70
16140;DHT22;8175;49.326;12.690;2022-07-18T13:39:47;33.60;36.30
16140;DHT22;8175;49.326;12.690;2022-07-18T13:42:13;33.50;36.90
16140;DHT22;8175;49.326;12.690;2022-07-18T13:44:38;33.70;35.60
16140;DHT22;8175;49.326;12.690;2022-07-18T13:47:04;32.70;36.60
16140;DHT22;8175;49.326;12.690;2022-07-18T13:49:30;33.30;37.40
16140;DHT22;8175;49.326;12.690;2022-07-18T13:51:56;33.60;35.80
16140;DHT22;8175;49.326;12.690;2022-07-18T13:54:21;33.50;38.70
16140;DHT22;8175;49.326;12.690;2022-07-18T13:56:47;33.40;37.40
16140;DHT22;8175;49.326;12.690;2022-07-18T13:59:13;33.70;38.60
16140;DHT22;8175;49.326;12.690;2022-07-18T14:01:40;34.70;34.20
16140;DHT22;8175;49.326;12.690;2022-07-18T14:04:06;34.50;37.00
16140;DHT22;8175;49.326;12.690;2022-07-18T14:06:32;34.30;33.90
16140;DHT22;8175;49.326;12.690;2022-07-18T14:08:57;34.40;36.50
16140;DHT22;8175;49.326;12.690;2022-07-18T14:11:23;34.60;36.90
16140;DHT22;8175;49.326;12.690;2022-07-18T14:13:49;35.10;35.00
16140;DHT22;8175;49.326;12.690;2022-07-18T14:16:14;34.60;36.70
16140;DHT22;8175;49.326;12.690;2022-07-18T14:18:40;34.90;35.90
16140;DHT22;8175;49.326;12.690;2022-07-18T14:21:06;35.10;34.80
16140;DHT22;8175;49.326;12.690;2022-07-18T14:23:32;34.40;34.70
16140;DHT22;8175;49.326;12.690;2022-07-18T14:25:57;33.60;36.60
16140;DHT22;8175;49.326;12.690;2022-07-18T14:28:23;32.90;38.30
16140;DHT22;8175;49.326;12.690;2022-07-18T14:30:48;32.70;39.10
16140;DHT22;8175;49.326;12.690;2022-07-18T14:33:14;32.70;36.20
16140;DHT22;8175;49.326;12.690;2022-07-18T14:35:40;33.20;37.80
16140;DHT22;8175;49.326;12.690;2022-07-18T14:38:05;33.10;37.60
16140;DHT22;8175;49.326;12.690;2022-07-18T14:40:31;32.70;39.30
16140;DHT22;8175;49.326;12.690;2022-07-18T14:42:57;32.50;38.50
16140;DHT22;8175;49.326;12.690;2022-07-18T14:45:22;32.40;36.90
16140;DHT22;8175;49.326;12.690;2022-07-18T14:47:48;32.30;37.30
16140;DHT22;8175;49.326;12.690;2022-07-18T14:50:13;32.30;38.50
16140;DHT22;8175;49.326;12.690;2022-07-18T14:52:40;32.30;38.10
16140;DHT22;8175;49.326;12.690;2022-07-18T14:55:06;32.60;39.20
16140;DHT22;8175;49.326;12.690;2022-07-18T14:57:33;32.70;38.50
16140;DHT22;8175;49.326;12.690;2022-07-18T14:59:58;33.10;35.80
16140;DHT22;8175;49.326;12.690;2022-07-18T15:02:24;33.10;35.80
16140;DHT22;8175;49.326;12.690;2022-07-18T15:04:50;33.30;35.80
16140;DHT22;8175;49.326;12.690;2022-07-18T15:07:16;33.30;36.50
16140;DHT22;8175;49.326;12.690;2022-07-18T15:09:41;33.30;34.80
16140;DHT22;8175;49.326;12.690;2022-07-18T15:12:07;33.20;35.30
16140;DHT22;8175;49.326;12.690;2022-07-18T15:14:36;32.80;37.10
16140;DHT22;8175;49.326;12.690;2022-07-18T15:17:01;32.60;36.60
16140;DHT22;8175;49.326;12.690;2022-07-18T15:19:27;32.50;37.50
16140;DHT22;8175;49.326;12.690;2022-07-18T15:21:53;32.20;36.30
16140;DHT22;8175;49.326;12.690;2022-07-18T15:24:18;32.10;38.90
16140;DHT22;8175;49.326;12.690;2022-07-18T15:26:44;32.10;39.00
16140;DHT22;8175;49.326;12.690;2022-07-18T15:29:10;31.80;35.90
16140;DHT22;8175;49.326;12.690;2022-07-18T15:31:35;31.90;36.70
16140;DHT22;8175;49.326;12.690;2022-07-18T15:34:01;32.00;38.10
16140;DHT22;8175;49.326;12.690;2022-07-18T15:36:27;31.80;41.20
16140;DHT22;8175;49.326;12.690;2022-07-18T15:38:52;31.60;37.40
16140;DHT22;8175;49.326;12.690;2022-07-18T15:41:18;31.50;39.40
16140;DHT22;8175;49.326;12.690;2022-07-18T15:43:46;31.50;38.60
16140;DHT22;8175;49.326;12.690;2022-07-18T15:46:12;31.40;39.20
16140;DHT22;8175;49.326;12.690;2022-07-18T15:48:45;31.50;39.60
16140;DHT22;8175;49.326;12.690;2022-07-18T15:51:12;31.50;38.50
16140;DHT22;8175;49.326;12.690;2022-07-18T15:53:38;31.00;39.40
16140;DHT22;8175;49.326;12.690;2022-07-18T15:56:05;30.70;39.00
16140;DHT22;8175;49.326;12.690;2022-07-18T15:58:30;30.60;41.50
16140;DHT22;8175;49.326;12.690;2022-07-18T16:00:57;30.50;45.80
16140;DHT22;8175;49.326;12.690;2022-07-18T16:03:23;30.60;41.20
16140;DHT22;8175;49.326;12.690;2022-07-18T16:05:49;30.70;42.30
16140;DHT22;8175;49.326;12.690;2022-07-18T16:08:15;30.50;39.50
16140;DHT22;8175;49.326;12.690;2022-07-18T16:10:41;30.40;40.00